createdAt,value
2019-01-08T00:00:22.069Z,100138.86
2019-01-08T00:02:56.359Z,100143.28
2019-01-08T00:05:28.972Z,100138.36
2019-01-08T00:08:03.045Z,100142.42
2019-01-08T00:10:36.270Z,100142.42
2019-01-08T00:13:09.479Z,100154.55
2019-01-08T00:15:43.027Z,100154.80
2019-01-08T00:18:16.270Z,100150.94
2019-01-08T00:20:52.175Z,100155.55
2019-01-08T00:23:25.698Z,100170.40
2019-01-08T00:25:58.675Z,100174.59
2019-01-08T00:28:32.041Z,100177.84
2019-01-08T00:31:05.001Z,100177.89
2019-01-08T00:33:37.956Z,100179.94
2019-01-08T00:36:10.711Z,100184.64
2019-01-08T00:38:44.716Z,100179.38
2019-01-08T00:41:18.321Z,100185.33
2019-01-08T00:43:51.607Z,100194.31
2019-01-08T00:46:24.627Z,100196.34
2019-01-08T00:48:58.594Z,100200.94
2019-01-08T00:51:32.419Z,100194.92
2019-01-08T00:54:06.910Z,100200.34
2019-01-08T00:56:39.748Z,100206.87
2019-01-08T00:59:13.687Z,100215.57
2019-01-08T01:01:46.651Z,100222.06
2019-01-08T01:04:19.584Z,100229.36
2019-01-08T01:06:52.914Z,100232.73
2019-01-08T01:09:26.148Z,100236.84
2019-01-08T01:11:59.410Z,100239.48
2019-01-08T01:14:33.469Z,100231.59
2019-01-08T01:17:06.532Z,100237.11
2019-01-08T01:19:39.689Z,100253.44
2019-01-08T01:22:13.869Z,100253.14
2019-01-08T01:24:46.915Z,100255.08
2019-01-08T01:27:19.985Z,100258.08
2019-01-08T01:29:55.809Z,100258.54
2019-01-08T01:32:28.903Z,100254.16
2019-01-08T01:35:01.798Z,100253.68
2019-01-08T01:37:34.691Z,100258.77
2019-01-08T01:40:08.392Z,100264.77
2019-01-08T01:42:41.610Z,100259.88
2019-01-08T01:45:15.086Z,100255.95
2019-01-08T01:47:47.937Z,100257.16
2019-01-08T01:50:21.254Z,100261.11
2019-01-08T01:52:54.137Z,100270.47
2019-01-08T01:55:27.160Z,100274.05
2019-01-08T01:58:00.361Z,100268.77
2019-01-08T02:00:33.436Z,100276.92
2019-01-08T02:03:06.488Z,100280.13
2019-01-08T02:05:39.870Z,100264.91
2019-01-08T02:08:12.851Z,100263.38
2019-01-08T02:10:45.890Z,100276.55
2019-01-08T02:13:18.890Z,100265.50
2019-01-08T02:15:51.909Z,100269.91
2019-01-08T02:18:25.047Z,100273.74
2019-01-08T02:20:57.999Z,100271.34
2019-01-08T02:23:32.388Z,100275.70
2019-01-08T02:26:05.535Z,100277.66
2019-01-08T02:28:38.388Z,100283.27
2019-01-08T02:31:12.487Z,100281.16
2019-01-08T02:33:45.715Z,100283.11
2019-01-08T02:36:18.638Z,100279.61
2019-01-08T02:38:51.812Z,100279.06
2019-01-08T02:41:24.898Z,100278.44
2019-01-08T02:43:57.931Z,100283.15
2019-01-08T02:46:31.107Z,100294.85
2019-01-08T02:49:04.296Z,100287.39
2019-01-08T02:51:37.549Z,100272.97
2019-01-08T02:54:10.469Z,100284.44
2019-01-08T02:56:43.636Z,100285.89
2019-01-08T02:59:24.871Z,100287.20
2019-01-08T03:01:52.383Z,100290.28
2019-01-08T03:04:25.479Z,100304.78
2019-01-08T03:06:58.511Z,100297.95
2019-01-08T03:09:32.948Z,100288.38
2019-01-08T03:12:06.062Z,100287.27
2019-01-08T03:14:39.211Z,100296.23
2019-01-08T03:17:12.557Z,100286.11
2019-01-08T03:19:45.683Z,100285.16
2019-01-08T03:22:19.044Z,100292.97
2019-01-08T03:24:52.048Z,100296.11
2019-01-08T03:27:25.281Z,100295.48
2019-01-08T03:29:58.328Z,100300.80
2019-01-08T03:32:33.576Z,100294.32
2019-01-08T03:35:07.487Z,100292.61
2019-01-08T03:37:40.931Z,100290.78
2019-01-08T03:40:14.304Z,100287.34
2019-01-08T03:42:47.437Z,100281.42
2019-01-08T03:45:20.474Z,100279.95
2019-01-08T03:47:53.715Z,100285.36
2019-01-08T03:50:27.266Z,100281.10
2019-01-08T03:53:00.962Z,100287.61
2019-01-08T03:55:34.411Z,100288.56
2019-01-08T03:58:08.943Z,100294.36
2019-01-08T04:00:42.110Z,100286.47
2019-01-08T04:03:15.502Z,100288.56
2019-01-08T04:05:49.756Z,100292.08
2019-01-08T04:08:22.973Z,100291.92
2019-01-08T04:10:56.236Z,100297.30
2019-01-08T04:13:30.386Z,100290.39
2019-01-08T04:16:05.034Z,100295.27
2019-01-08T04:18:38.135Z,100301.20
2019-01-08T04:21:11.153Z,100301.34
2019-01-08T04:23:44.401Z,100312.29
2019-01-08T04:26:18.136Z,100300.79
2019-01-08T04:28:52.509Z,100297.64
2019-01-08T04:31:25.864Z,100303.64
2019-01-08T04:33:58.689Z,100303.42
2019-01-08T04:36:32.855Z,100307.89
2019-01-08T04:39:06.379Z,100307.48
2019-01-08T04:41:39.811Z,100311.66
2019-01-08T04:44:13.275Z,100308.42
2019-01-08T04:46:46.480Z,100313.05
2019-01-08T04:49:19.678Z,100315.16
2019-01-08T04:51:54.001Z,100329.45
2019-01-08T04:54:27.067Z,100323.60
2019-01-08T04:57:00.234Z,100329.85
2019-01-08T04:59:34.184Z,100335.23
2019-01-08T05:02:07.205Z,100334.07
2019-01-08T05:04:40.392Z,100339.22
2019-01-08T05:07:14.051Z,100343.20
2019-01-08T05:09:47.074Z,100348.64
2019-01-08T05:12:20.739Z,100351.92
2019-01-08T05:14:53.828Z,100346.34
2019-01-08T05:17:27.437Z,100348.30
2019-01-08T05:20:01.578Z,100353.45
2019-01-08T05:22:35.436Z,100369.60
2019-01-08T05:25:08.807Z,100364.66
2019-01-08T05:27:41.782Z,100373.38
2019-01-08T05:30:15.046Z,100369.42
2019-01-08T05:32:48.792Z,100378.61
2019-01-08T05:35:21.831Z,100378.81
2019-01-08T05:37:55.790Z,100377.30
2019-01-08T05:40:30.089Z,100379.09
2019-01-08T05:43:03.337Z,100382.94
2019-01-08T05:45:36.608Z,100380.38
2019-01-08T05:48:11.593Z,100394.32
2019-01-08T05:50:44.665Z,100392.29
2019-01-08T05:53:17.546Z,100404.70
2019-01-08T05:55:50.705Z,100409.23
2019-01-08T05:58:23.413Z,100406.32
2019-01-08T06:00:56.598Z,100421.21
2019-01-08T06:03:30.429Z,100422.38
2019-01-08T06:06:04.752Z,100439.88
2019-01-08T06:08:37.780Z,100445.73
2019-01-08T06:11:11.011Z,100445.48
2019-01-08T06:13:52.507Z,100446.58
2019-01-08T06:16:25.295Z,100444.28
2019-01-08T06:18:58.462Z,100435.30
2019-01-08T06:21:31.857Z,100438.01
2019-01-08T06:24:05.371Z,100443.73
2019-01-08T06:26:41.975Z,100447.87
2019-01-08T06:29:15.458Z,100453.70
2019-01-08T06:31:48.463Z,100454.88
2019-01-08T06:34:22.483Z,100465.38
2019-01-08T06:36:55.504Z,100474.87
2019-01-08T06:39:29.855Z,100469.81
2019-01-08T06:42:03.136Z,100478.18
2019-01-08T06:44:37.524Z,100487.03
2019-01-08T06:47:11.515Z,100482.17
2019-01-08T06:49:44.531Z,100486.99
2019-01-08T06:52:17.747Z,100489.06
2019-01-08T06:54:50.979Z,100496.14
2019-01-08T06:57:23.831Z,100503.03
2019-01-08T06:59:57.237Z,100514.74
2019-01-08T07:02:30.398Z,100518.00
2019-01-08T07:05:03.915Z,100518.13
2019-01-08T07:07:37.639Z,100514.47
2019-01-08T07:10:11.251Z,100508.41
2019-01-08T07:12:44.534Z,100517.32
2019-01-08T07:15:19.129Z,100523.09
2019-01-08T07:17:53.491Z,100516.28
2019-01-08T07:20:27.599Z,100525.34
2019-01-08T07:23:01.173Z,100518.77
2019-01-08T07:25:41.968Z,100529.64
2019-01-08T07:28:10.102Z,100532.63
2019-01-08T07:30:44.660Z,100544.03
2019-01-08T07:33:18.912Z,100544.34
2019-01-08T07:35:52.772Z,100553.36
2019-01-08T07:38:25.755Z,100564.88
2019-01-08T07:40:59.950Z,100565.09
2019-01-08T07:43:35.332Z,100571.05
2019-01-08T07:46:08.798Z,100572.66
2019-01-08T07:48:41.875Z,100567.39
2019-01-08T07:51:15.368Z,100580.20
2019-01-08T07:53:49.590Z,100585.16
2019-01-08T07:56:23.810Z,100577.62
2019-01-08T07:58:57.062Z,100573.91
2019-01-08T08:01:30.278Z,100583.84
2019-01-08T08:04:03.008Z,100578.72
2019-01-08T08:06:36.323Z,100589.87
2019-01-08T08:09:09.651Z,100590.38
2019-01-08T08:11:43.933Z,100595.19
2019-01-08T08:14:17.744Z,100594.16
2019-01-08T08:16:51.363Z,100600.05
2019-01-08T08:19:24.533Z,100593.98
2019-01-08T08:21:58.415Z,100597.48
2019-01-08T08:24:31.749Z,100586.03
2019-01-08T08:27:05.129Z,100576.77
2019-01-08T08:29:38.562Z,100575.45
2019-01-08T08:32:11.935Z,100579.36
2019-01-08T08:34:46.732Z,100589.01
2019-01-08T08:37:20.631Z,100585.04
2019-01-08T08:39:53.964Z,100590.81
2019-01-08T08:42:27.131Z,100591.03
2019-01-08T08:45:00.727Z,100592.05
2019-01-08T08:47:33.991Z,100591.09
2019-01-08T08:50:08.034Z,100594.81
2019-01-08T08:52:41.315Z,100602.24
2019-01-08T08:55:14.771Z,100603.56
2019-01-08T08:57:48.104Z,100598.06
2019-01-08T09:00:21.328Z,100611.77
2019-01-08T09:02:56.223Z,100605.62
2019-01-08T09:05:29.417Z,100614.27
2019-01-08T09:08:02.433Z,100606.59
2019-01-08T09:10:35.801Z,100601.20
2019-01-08T09:13:10.198Z,100589.30
2019-01-08T09:15:43.916Z,100593.00
2019-01-08T09:18:17.372Z,100595.05
2019-01-08T09:20:52.636Z,100600.48
2019-01-08T09:23:26.072Z,100607.20
2019-01-08T09:25:59.802Z,100609.13
2019-01-08T09:28:32.970Z,100610.81
2019-01-08T09:31:06.145Z,100616.67
2019-01-08T09:33:41.308Z,100615.72
2019-01-08T09:36:14.797Z,100616.45
2019-01-08T09:38:47.956Z,100615.02
2019-01-08T09:41:21.576Z,100618.61
2019-01-08T09:43:55.866Z,100623.64
2019-01-08T09:46:30.294Z,100617.77
2019-01-08T09:49:04.780Z,100626.02
2019-01-08T09:51:38.124Z,100622.16
2019-01-08T09:54:11.428Z,100614.72
2019-01-08T09:56:44.976Z,100614.23
2019-01-08T09:59:23.836Z,100608.81
2019-01-08T10:01:58.536Z,100601.14
2019-01-08T10:04:32.486Z,100605.21
2019-01-08T10:07:05.710Z,100618.30
2019-01-08T10:09:44.198Z,100617.91
2019-01-08T10:12:18.896Z,100626.23
2019-01-08T10:14:53.231Z,100641.59
2019-01-08T10:17:29.730Z,100662.07
2019-01-08T10:20:04.379Z,100662.07
2019-01-08T10:22:41.860Z,100672.03
2019-01-08T10:25:34.014Z,100680.79
2019-01-08T10:28:09.184Z,100687.23
2019-01-08T10:30:44.553Z,100692.80
2019-01-08T10:33:19.082Z,100689.60
2019-01-08T10:35:53.853Z,100696.66
2019-01-08T10:38:27.893Z,100697.03
2019-01-08T10:41:01.869Z,100694.98
2019-01-08T10:43:37.789Z,100700.34
2019-01-08T10:46:12.626Z,100705.60
2019-01-08T10:48:50.864Z,100705.45
2019-01-08T10:51:26.268Z,100690.09
2019-01-08T10:54:01.956Z,100675.81
2019-01-08T10:56:37.334Z,100675.33
2019-01-08T10:59:11.424Z,100685.83
2019-01-08T11:01:51.389Z,100684.77
2019-01-08T11:04:26.438Z,100695.79
2019-01-08T11:07:01.605Z,100693.52
2019-01-08T11:09:37.579Z,100695.47
2019-01-08T11:12:15.095Z,100692.04
2019-01-08T11:14:49.791Z,100680.00
2019-01-08T11:17:26.133Z,100675.55
2019-01-08T11:20:00.188Z,100679.98
2019-01-08T11:22:35.557Z,100678.39
2019-01-08T11:25:15.907Z,100671.94
2019-01-08T11:27:50.159Z,100671.94
2019-01-08T11:30:28.068Z,100671.94
2019-01-08T11:33:02.848Z,100674.20
2019-01-08T11:35:42.523Z,100676.91
2019-01-08T11:38:18.724Z,100682.75
2019-01-08T11:40:53.937Z,100687.30
2019-01-08T11:43:30.284Z,100706.95
2019-01-08T11:46:04.851Z,100707.98
2019-01-08T11:48:41.421Z,100718.98
2019-01-08T11:51:17.391Z,100730.88
2019-01-08T11:53:52.021Z,100729.36
2019-01-08T11:56:26.596Z,100740.80
2019-01-08T11:59:06.471Z,100740.80
2019-01-08T12:01:41.866Z,100747.58
2019-01-08T12:04:18.727Z,100746.28
2019-01-08T12:06:54.942Z,100749.56
2019-01-08T12:09:30.560Z,100748.27
2019-01-08T12:12:05.459Z,100738.29
2019-01-08T12:14:41.845Z,100734.28
2019-01-08T12:17:16.558Z,100728.90
2019-01-08T12:19:51.488Z,100726.13
2019-01-08T12:22:26.683Z,100735.38
2019-01-08T12:25:03.239Z,100748.55
2019-01-08T12:27:38.644Z,100743.97
2019-01-08T12:30:13.981Z,100740.93
2019-01-08T12:32:49.994Z,100750.72
2019-01-08T12:35:24.542Z,100753.26
2019-01-08T12:38:02.986Z,100765.67
2019-01-08T12:40:37.978Z,100755.97
2019-01-08T12:43:14.476Z,100758.23
2019-01-08T12:45:49.060Z,100766.42
2019-01-08T12:48:25.336Z,100763.20
2019-01-08T12:51:00.132Z,100770.89
2019-01-08T12:53:39.457Z,100775.86
2019-01-08T12:56:18.897Z,100771.36
2019-01-08T12:58:55.493Z,100769.43
2019-01-08T13:01:32.232Z,100776.50
2019-01-08T13:04:07.149Z,100785.36
2019-01-08T13:06:43.535Z,100785.73
2019-01-08T13:09:20.373Z,100779.91
2019-01-08T13:11:57.375Z,100791.42
2019-01-08T13:14:33.699Z,100785.13
2019-01-08T13:17:11.760Z,100790.30
2019-01-08T13:19:45.922Z,100790.30
2019-01-08T13:22:25.121Z,100802.92
2019-01-08T13:25:00.581Z,100800.86
2019-01-08T13:27:36.624Z,100805.66
2019-01-08T13:30:11.766Z,100802.17
2019-01-08T13:32:46.564Z,100799.09
2019-01-08T13:35:21.348Z,100798.45
2019-01-08T13:37:55.919Z,100796.86
2019-01-08T13:40:35.309Z,100780.59
2019-01-08T13:43:08.220Z,100781.54
2019-01-08T13:45:43.233Z,100784.72
2019-01-08T13:48:18.994Z,100791.92
2019-01-08T13:50:54.431Z,100789.76
2019-01-08T13:53:28.181Z,100788.26
2019-01-08T13:56:02.615Z,100782.58
2019-01-08T13:58:36.900Z,100777.51
2019-01-08T14:01:11.161Z,100781.17
2019-01-08T14:03:45.406Z,100787.29
2019-01-08T14:06:19.731Z,100791.89
2019-01-08T14:08:54.505Z,100783.33
2019-01-08T14:11:28.818Z,100782.28
2019-01-08T14:14:07.118Z,100784.08
2019-01-08T14:16:44.393Z,100780.59
2019-01-08T14:19:19.928Z,100779.88
2019-01-08T14:21:54.131Z,100773.86
2019-01-08T14:24:28.856Z,100763.20
2019-01-08T14:27:11.576Z,100759.48
2019-01-08T14:29:38.959Z,100754.55
2019-01-08T14:32:13.360Z,100753.47
2019-01-08T14:34:48.126Z,100759.97
2019-01-08T14:37:23.962Z,100763.14
2019-01-08T14:39:59.174Z,100766.08
2019-01-08T14:42:33.375Z,100759.66
2019-01-08T14:45:08.404Z,100760.53
2019-01-08T14:47:44.194Z,100753.95
2019-01-08T14:50:18.483Z,100749.05
2019-01-08T14:52:53.870Z,100745.08
2019-01-08T14:55:27.909Z,100736.94
2019-01-08T14:58:01.813Z,100728.95
2019-01-08T15:00:35.827Z,100726.89
2019-01-08T15:03:10.444Z,100716.65
2019-01-08T15:05:46.258Z,100712.12
2019-01-08T15:08:20.048Z,100702.76
2019-01-08T15:10:53.628Z,100693.05
2019-01-08T15:13:27.688Z,100708.50
2019-01-08T15:16:01.344Z,100708.33
2019-01-08T15:18:35.243Z,100696.80
2019-01-08T15:21:08.810Z,100700.33
2019-01-08T15:23:42.620Z,100700.02
2019-01-08T15:26:16.949Z,100702.31
2019-01-08T15:28:51.192Z,100677.70
2019-01-08T15:31:24.861Z,100677.70
2019-01-08T15:34:02.879Z,100679.02
2019-01-08T15:36:36.888Z,100678.42
2019-01-08T15:39:11.018Z,100667.35
2019-01-08T15:41:54.583Z,100665.37
2019-01-08T15:44:29.906Z,100672.44
2019-01-08T15:47:07.687Z,100659.77
2019-01-08T15:49:42.005Z,100664.83
2019-01-08T15:52:15.903Z,100643.07
2019-01-08T15:54:49.867Z,100640.36
2019-01-08T15:57:23.423Z,100631.14
2019-01-08T15:59:57.224Z,100618.98
2019-01-08T16:02:31.135Z,100620.44
2019-01-08T16:05:05.039Z,100619.36
2019-01-08T16:07:39.973Z,100620.16
2019-01-08T16:10:13.876Z,100611.67
2019-01-08T16:12:47.931Z,100606.56
2019-01-08T16:15:22.897Z,100613.30
2019-01-08T16:18:17.164Z,100603.42
2019-01-08T16:20:51.003Z,100606.05
2019-01-08T16:23:24.827Z,100603.95
2019-01-08T16:25:59.018Z,100610.15
2019-01-08T16:28:32.482Z,100603.88
2019-01-08T16:31:05.688Z,100597.33
2019-01-08T16:33:40.010Z,100615.66
2019-01-08T16:36:13.798Z,100610.36
2019-01-08T16:38:47.553Z,100601.38
2019-01-08T16:41:21.523Z,100594.86
2019-01-08T16:43:55.092Z,100590.08
2019-01-08T16:46:29.087Z,100586.91
2019-01-08T16:49:04.059Z,100595.12
2019-01-08T16:51:38.455Z,100590.53
2019-01-08T16:54:12.236Z,100598.52
2019-01-08T16:56:45.365Z,100589.59
2019-01-08T16:59:19.487Z,100596.59
2019-01-08T17:01:52.560Z,100589.90
2019-01-08T17:04:25.732Z,100590.50
2019-01-08T17:06:58.804Z,100574.30
2019-01-08T17:09:31.971Z,100585.47
2019-01-08T17:12:06.320Z,100580.96
2019-01-08T17:14:39.356Z,100573.79
2019-01-08T17:17:13.477Z,100582.09
2019-01-08T17:19:47.841Z,100577.72
2019-01-08T17:22:20.898Z,100568.71
2019-01-08T17:24:54.242Z,100572.76
2019-01-08T17:27:27.285Z,100564.25
2019-01-08T17:30:00.972Z,100575.41
2019-01-08T17:32:33.887Z,100565.70
2019-01-08T17:35:07.468Z,100570.98
2019-01-08T17:37:40.502Z,100564.97
2019-01-08T17:40:15.696Z,100574.01
2019-01-08T17:42:48.819Z,100575.92
2019-01-08T17:45:22.801Z,100574.22
2019-01-08T17:47:56.769Z,100569.78
2019-01-08T17:50:29.748Z,100568.66
2019-01-08T17:53:03.490Z,100561.69
2019-01-08T17:55:36.557Z,100559.33
2019-01-08T17:58:39.575Z,100554.98
2019-01-08T18:01:18.733Z,100559.04
2019-01-08T18:03:51.755Z,100556.45
2019-01-08T18:06:24.869Z,100555.08
2019-01-08T18:08:58.131Z,100553.41
2019-01-08T18:11:31.397Z,100552.45
2019-01-08T18:14:04.827Z,100552.72
2019-01-08T18:16:37.963Z,100539.16
2019-01-08T18:19:10.939Z,100529.55
2019-01-08T18:21:43.981Z,100531.23
2019-01-08T18:24:17.908Z,100529.32
2019-01-08T18:26:51.338Z,100524.64
2019-01-08T18:29:25.466Z,100518.27
2019-01-08T18:31:58.588Z,100519.70
2019-01-08T18:34:31.751Z,100513.25
2019-01-08T18:37:04.940Z,100513.02
2019-01-08T18:39:39.063Z,100507.95
2019-01-08T18:42:12.519Z,100504.84
2019-01-08T18:44:45.679Z,100510.38
2019-01-08T18:47:18.879Z,100504.23
2019-01-08T18:49:52.036Z,100493.67
2019-01-08T18:52:24.983Z,100493.67
2019-01-08T18:54:58.174Z,100489.59
2019-01-08T18:57:31.517Z,100484.03
2019-01-08T19:00:04.824Z,100479.94
2019-01-08T19:02:37.845Z,100489.42
2019-01-08T19:05:10.997Z,100488.20
2019-01-08T19:07:44.094Z,100496.50
2019-01-08T19:10:18.615Z,100488.75
2019-01-08T19:12:51.462Z,100486.58
2019-01-08T19:15:24.434Z,100481.52
2019-01-08T19:17:57.456Z,100474.25
2019-01-08T19:20:30.775Z,100478.69
2019-01-08T19:23:03.903Z,100471.14
2019-01-08T19:25:36.979Z,100470.41
2019-01-08T19:28:10.035Z,100463.64
2019-01-08T19:30:43.006Z,100459.20
2019-01-08T19:33:16.234Z,100454.77
2019-01-08T19:35:49.198Z,100451.75
2019-01-08T19:38:23.268Z,100447.79
2019-01-08T19:40:56.188Z,100447.91
2019-01-08T19:43:28.845Z,100441.20
2019-01-08T19:46:02.165Z,100440.11
2019-01-08T19:48:35.155Z,100450.31
2019-01-08T19:51:08.148Z,100445.55
2019-01-08T19:53:41.147Z,100452.88
2019-01-08T19:56:14.229Z,100447.22
2019-01-08T19:58:48.161Z,100451.27
2019-01-08T20:01:21.567Z,100447.53
2019-01-08T20:03:54.873Z,100431.78
2019-01-08T20:06:27.878Z,100425.67
2019-01-08T20:09:01.049Z,100429.87
2019-01-08T20:11:35.674Z,100427.61
2019-01-08T20:14:08.562Z,100421.72
2019-01-08T20:16:41.679Z,100423.89
2019-01-08T20:19:14.694Z,100417.77
2019-01-08T20:21:47.697Z,100420.77
2019-01-08T20:24:20.302Z,100427.63
2019-01-08T20:26:54.395Z,100421.72
2019-01-08T20:29:27.480Z,100420.08
2019-01-08T20:32:00.526Z,100413.12
2019-01-08T20:34:33.755Z,100405.05
2019-01-08T20:37:06.695Z,100416.59
2019-01-08T20:39:39.744Z,100415.16
2019-01-08T20:42:12.709Z,100411.69
2019-01-08T20:44:45.569Z,100405.45
2019-01-08T20:47:18.550Z,100402.67
2019-01-08T20:49:51.585Z,100396.45
2019-01-08T20:52:24.586Z,100393.33
2019-01-08T20:54:57.233Z,100390.66
2019-01-08T20:57:30.118Z,100393.80
2019-01-08T21:00:03.034Z,100385.42
2019-01-08T21:02:37.202Z,100376.37
2019-01-08T21:05:10.069Z,100383.00
2019-01-08T21:07:42.995Z,100370.41
2019-01-08T21:10:16.189Z,100373.55
2019-01-08T21:12:50.113Z,100372.09
2019-01-08T21:15:22.931Z,100374.36
2019-01-08T21:17:55.574Z,100365.27
2019-01-08T21:20:28.618Z,100370.29
2019-01-08T21:23:01.602Z,100350.17
2019-01-08T21:25:34.731Z,100350.52
2019-01-08T21:28:07.901Z,100349.19
2019-01-08T21:30:40.933Z,100350.62
2019-01-08T21:33:13.832Z,100342.13
2019-01-08T21:35:47.717Z,100336.02
2019-01-08T21:38:21.732Z,100326.08
2019-01-08T21:40:55.213Z,100325.83
2019-01-08T21:43:28.487Z,100326.55
2019-01-08T21:46:01.552Z,100312.53
2019-01-08T21:48:34.835Z,100308.07
2019-01-08T21:51:07.925Z,100308.44
2019-01-08T21:53:41.023Z,100305.91
2019-01-08T21:56:14.096Z,100301.12
2019-01-08T21:58:47.305Z,100303.30
2019-01-08T22:01:20.584Z,100288.30
2019-01-08T22:03:54.036Z,100281.48
2019-01-08T22:06:27.157Z,100283.39
2019-01-08T22:09:01.640Z,100287.72
2019-01-08T22:11:34.469Z,100287.36
2019-01-08T22:14:08.327Z,100292.15
2019-01-08T22:16:42.733Z,100294.53
2019-01-08T22:19:26.960Z,100294.05
2019-01-08T22:22:00.110Z,100282.80
2019-01-08T22:24:33.158Z,100269.14
2019-01-08T22:27:06.639Z,100274.63
2019-01-08T22:29:40.728Z,100283.39
2019-01-08T22:32:14.093Z,100281.59
2019-01-08T22:34:47.042Z,100274.04
2019-01-08T22:37:19.884Z,100269.98
2019-01-08T22:39:54.249Z,100263.02
2019-01-08T22:42:27.857Z,100273.32
2019-01-08T22:45:01.127Z,100266.98
2019-01-08T22:47:34.180Z,100257.41
2019-01-08T22:50:09.706Z,100252.23
2019-01-08T22:52:44.097Z,100245.16
2019-01-08T22:55:17.414Z,100246.47
2019-01-08T22:57:50.886Z,100228.26
2019-01-08T23:00:25.695Z,100245.77
2019-01-08T23:02:58.692Z,100242.88
2019-01-08T23:05:31.947Z,100233.77
2019-01-08T23:08:05.040Z,100235.58
2019-01-08T23:10:39.928Z,100220.80
2019-01-08T23:13:12.770Z,100230.04
2019-01-08T23:15:45.639Z,100245.50
2019-01-08T23:18:19.142Z,100220.66
2019-01-08T23:20:52.954Z,100229.43
2019-01-08T23:23:27.014Z,100236.02
2019-01-08T23:26:00.316Z,100240.70
2019-01-08T23:28:34.370Z,100230.04
2019-01-08T23:31:08.218Z,100236.64
2019-01-08T23:33:41.168Z,100233.98
2019-01-08T23:36:14.057Z,100216.47
2019-01-08T23:38:48.145Z,100216.00
2019-01-08T23:41:21.239Z,100216.48
2019-01-08T23:43:54.264Z,100210.73
2019-01-08T23:46:27.367Z,100216.47
2019-01-08T23:49:01.411Z,100212.02
2019-01-08T23:51:34.843Z,100206.27
2019-01-08T23:54:09.415Z,100203.33
2019-01-08T23:56:43.097Z,100210.34
2019-01-08T23:59:16.564Z,100191.14
